createdAt,value
2022-09-28T00:00:09.940Z,94945.41
2022-09-28T00:02:57.849Z,94936.34
2022-09-28T00:05:44.557Z,94924.53
2022-09-28T00:08:30.889Z,94932.38
2022-09-28T00:11:18.923Z,94937.94
2022-09-28T00:14:07.350Z,94942.13
2022-09-28T00:16:53.746Z,94922.28
2022-09-28T00:19:41.323Z,94933.63
2022-09-28T00:22:27.870Z,94928.63
2022-09-28T00:25:16.807Z,94883.81
2022-09-28T00:28:03.261Z,94923.03
2022-09-28T00:30:49.656Z,94927.44
2022-09-28T00:33:35.968Z,94906.53
2022-09-28T00:36:23.849Z,94921.91
2022-09-28T00:39:10.498Z,94920.00
2022-09-28T00:41:56.862Z,94911.88
2022-09-28T00:44:45.236Z,94913.41
2022-09-28T00:47:49.587Z,94907.28
2022-09-28T00:50:37.310Z,94910.16
2022-09-28T00:53:27.317Z,94900.38
2022-09-28T00:56:17.496Z,94905.13
2022-09-28T00:59:04.723Z,94904.00
2022-09-28T01:01:51.585Z,94906.00
2022-09-28T01:04:39.036Z,94901.81
2022-09-28T01:07:25.354Z,94903.13
2022-09-28T01:10:13.208Z,94890.59
2022-09-28T01:12:59.946Z,94850.66
2022-09-28T01:16:00.728Z,94887.09
2022-09-28T01:18:56.169Z,94884.44
2022-09-28T01:21:51.554Z,94868.41
2022-09-28T01:24:43.616Z,94872.31
2022-09-28T01:27:34.202Z,94869.22
2022-09-28T01:30:22.508Z,94855.31
2022-09-28T01:33:12.271Z,94884.50
2022-09-28T01:36:01.394Z,94881.34
2022-09-28T01:38:49.943Z,94873.16
2022-09-28T01:41:38.157Z,94891.22
2022-09-28T01:44:26.930Z,94887.78
2022-09-28T01:47:16.644Z,94887.44
2022-09-28T01:50:08.345Z,94877.56
2022-09-28T01:52:57.465Z,94880.09
2022-09-28T01:55:46.677Z,94884.94
2022-09-28T01:58:37.940Z,94880.69
2022-09-28T02:01:30.098Z,94842.03
2022-09-28T02:04:19.705Z,94877.41
2022-09-28T02:07:09.576Z,94892.06
2022-09-28T02:09:59.424Z,94894.59
2022-09-28T02:12:48.318Z,94897.69
2022-09-28T02:15:37.696Z,94891.47
2022-09-28T02:18:25.801Z,94909.09
2022-09-28T02:21:15.182Z,94895.44
2022-09-28T02:24:04.559Z,94900.16
2022-09-28T02:26:52.051Z,94890.34
2022-09-28T02:29:38.622Z,94885.25
2022-09-28T02:32:25.689Z,94883.47
2022-09-28T02:35:15.081Z,94882.25
2022-09-28T02:38:01.512Z,94870.41
2022-09-28T02:40:51.839Z,94875.63
2022-09-28T02:43:46.662Z,94871.03
2022-09-28T02:46:36.449Z,94873.22
2022-09-28T02:49:30.063Z,94869.97
2022-09-28T02:52:29.187Z,94868.59
2022-09-28T02:55:21.529Z,94867.53
2022-09-28T02:58:25.313Z,94876.00
2022-09-28T03:01:21.023Z,94870.22
2022-09-28T03:04:13.359Z,94857.38
2022-09-28T03:07:02.702Z,94815.94
2022-09-28T03:09:56.705Z,94869.97
2022-09-28T03:12:44.605Z,94859.72
2022-09-28T03:15:32.686Z,94840.72
2022-09-28T03:18:19.035Z,94848.31
2022-09-28T03:21:06.113Z,94849.19
2022-09-28T03:23:52.625Z,94849.19
2022-09-28T03:26:40.543Z,94853.25
2022-09-28T03:29:27.132Z,94860.56
2022-09-28T03:32:13.282Z,94864.19
2022-09-28T03:34:59.708Z,94863.41
2022-09-28T03:37:46.589Z,94849.94
2022-09-28T03:40:33.011Z,94848.06
2022-09-28T03:43:20.764Z,94856.09
2022-09-28T03:46:07.724Z,94848.00
2022-09-28T03:48:54.387Z,94850.44
2022-09-28T03:51:40.704Z,94846.03
2022-09-28T03:54:27.117Z,94849.97
2022-09-28T03:57:13.507Z,94843.75
2022-09-28T04:00:01.345Z,94837.63
2022-09-28T04:02:47.946Z,94832.44
2022-09-28T04:05:34.208Z,94804.19
2022-09-28T04:08:21.012Z,94811.25
2022-09-28T04:11:07.522Z,94801.78
2022-09-28T04:13:54.002Z,94804.88
2022-09-28T04:16:41.846Z,94796.69
2022-09-28T04:19:28.380Z,94791.88
2022-09-28T04:22:14.704Z,94791.72
2022-09-28T04:25:00.938Z,94783.53
2022-09-28T04:28:04.530Z,94785.63
2022-09-28T04:30:51.829Z,94779.16
2022-09-28T04:33:39.709Z,94773.31
2022-09-28T04:36:26.273Z,94770.44
2022-09-28T04:39:13.093Z,94736.56
2022-09-28T04:41:59.998Z,94755.31
2022-09-28T04:44:46.454Z,94762.69
2022-09-28T04:47:32.724Z,94762.38
2022-09-28T04:50:20.569Z,94769.81
2022-09-28T04:53:07.145Z,94758.28
2022-09-28T04:55:58.859Z,94754.66
2022-09-28T04:58:49.116Z,94743.06
2022-09-28T05:01:38.905Z,94754.66
2022-09-28T05:04:26.286Z,94752.28
2022-09-28T05:07:14.303Z,94743.38
2022-09-28T05:10:01.592Z,94744.09
2022-09-28T05:12:48.109Z,94741.34
2022-09-28T05:15:35.367Z,94744.09
2022-09-28T05:18:21.804Z,94729.63
2022-09-28T05:21:11.230Z,94734.84
2022-09-28T05:23:59.194Z,94728.53
2022-09-28T05:26:45.577Z,94709.47
2022-09-28T05:29:32.547Z,94704.34
2022-09-28T05:32:19.057Z,94700.91
2022-09-28T05:35:06.330Z,94704.16
2022-09-28T05:37:52.754Z,94716.84
2022-09-28T05:40:40.440Z,94703.22
2022-09-28T05:43:26.697Z,94704.16
2022-09-28T05:46:13.262Z,94688.81
2022-09-28T05:49:00.451Z,94688.72
2022-09-28T05:51:46.913Z,94688.03
2022-09-28T05:54:33.242Z,94677.53
2022-09-28T05:57:20.800Z,94671.28
2022-09-28T06:00:09.005Z,94675.75
2022-09-28T06:03:00.033Z,94694.91
2022-09-28T06:05:47.416Z,94695.22
2022-09-28T06:08:34.252Z,94694.59
2022-09-28T06:11:20.786Z,94698.25
2022-09-28T06:14:08.746Z,94697.22
2022-09-28T06:16:55.227Z,94680.75
2022-09-28T06:19:41.677Z,94681.75
2022-09-28T06:22:28.036Z,94689.63
2022-09-28T06:25:14.532Z,94692.16
2022-09-28T06:28:03.044Z,94681.44
2022-09-28T06:30:50.863Z,94688.22
2022-09-28T06:33:38.600Z,94685.88
2022-09-28T06:36:25.060Z,94678.34
2022-09-28T06:39:11.755Z,94665.88
2022-09-28T06:41:57.996Z,94680.66
2022-09-28T06:44:44.381Z,94674.50
2022-09-28T06:47:33.787Z,94669.06
2022-09-28T06:50:20.375Z,94660.19
2022-09-28T06:53:09.461Z,94660.03
2022-09-28T06:55:57.500Z,94656.06
2022-09-28T06:58:44.094Z,94661.81
2022-09-28T07:01:30.623Z,94666.97
2022-09-28T07:04:18.928Z,94671.78
2022-09-28T07:07:06.625Z,94670.34
2022-09-28T07:09:55.521Z,94660.97
2022-09-28T07:12:43.097Z,94661.97
2022-09-28T07:15:31.360Z,94656.00
2022-09-28T07:18:20.678Z,94645.84
2022-09-28T07:21:26.538Z,94647.44
2022-09-28T07:24:16.116Z,94641.25
2022-09-28T07:27:05.239Z,94611.47
2022-09-28T07:29:53.210Z,94643.81
2022-09-28T07:32:40.277Z,94647.38
2022-09-28T07:35:26.802Z,94636.50
2022-09-28T07:38:14.789Z,94637.56
2022-09-28T07:41:14.036Z,94641.59
2022-09-28T07:44:05.984Z,94624.88
2022-09-28T07:46:52.357Z,94636.16
2022-09-28T07:49:38.589Z,94650.75
2022-09-28T07:52:26.297Z,94647.97
2022-09-28T07:55:13.912Z,94644.66
2022-09-28T07:58:01.737Z,94624.13
2022-09-28T08:00:49.097Z,94604.84
2022-09-28T08:03:36.489Z,94637.72
2022-09-28T08:06:22.917Z,94636.41
2022-09-28T08:09:09.323Z,94628.09
2022-09-28T08:11:59.617Z,94624.41
2022-09-28T08:14:45.906Z,94609.38
2022-09-28T08:17:32.189Z,94603.75
2022-09-28T08:20:35.895Z,94595.31
2022-09-28T08:23:23.300Z,94587.50
2022-09-28T08:26:14.630Z,94589.22
2022-09-28T08:29:03.546Z,94573.28
2022-09-28T08:31:50.262Z,94589.81
2022-09-28T08:34:37.045Z,94593.91
2022-09-28T08:37:23.301Z,94593.41
2022-09-28T08:40:16.516Z,94572.72
2022-09-28T08:43:06.064Z,94552.97
2022-09-28T08:45:54.434Z,94579.44
2022-09-28T08:49:01.396Z,94584.44
2022-09-28T08:51:58.857Z,94574.38
2022-09-28T08:54:48.809Z,94567.16
2022-09-28T08:57:38.624Z,94579.75
2022-09-28T09:00:33.626Z,94579.97
2022-09-28T09:03:24.529Z,94580.84
2022-09-28T09:06:19.665Z,94578.19
2022-09-28T09:09:11.387Z,94579.75
2022-09-28T09:12:05.166Z,94589.84
2022-09-28T09:15:22.806Z,94580.91
2022-09-28T09:18:20.020Z,94577.03
2022-09-28T09:21:12.170Z,94578.41
2022-09-28T09:24:03.628Z,94579.56
2022-09-28T09:26:55.578Z,94575.97
2022-09-28T09:29:55.672Z,94583.66
2022-09-28T09:33:07.187Z,94581.19
2022-09-28T09:36:04.502Z,94579.97
2022-09-28T09:38:59.785Z,94567.84
2022-09-28T09:41:57.423Z,94574.59
2022-09-28T09:45:09.532Z,94564.88
2022-09-28T09:47:59.350Z,94570.56
2022-09-28T09:50:49.363Z,94554.41
2022-09-28T09:53:38.979Z,94553.69
2022-09-28T09:56:31.705Z,94559.03
2022-09-28T09:59:23.033Z,94562.09
2022-09-28T10:02:24.903Z,94559.47
2022-09-28T10:05:20.921Z,94548.97
2022-09-28T10:08:16.124Z,94523.47
2022-09-28T10:11:08.763Z,94559.75
2022-09-28T10:13:57.791Z,94550.50
2022-09-28T10:16:45.180Z,94558.63
2022-09-28T10:19:34.028Z,94545.38
2022-09-28T10:22:25.249Z,94556.91
2022-09-28T10:25:13.503Z,94556.97
2022-09-28T10:28:01.086Z,94545.50
2022-09-28T10:30:49.187Z,94548.09
2022-09-28T10:33:36.516Z,94546.28
2022-09-28T10:36:25.548Z,94552.72
2022-09-28T10:39:24.414Z,94550.03
2022-09-28T10:42:12.515Z,94539.09
2022-09-28T10:45:02.497Z,94554.06
2022-09-28T10:47:50.879Z,94550.34
2022-09-28T10:50:37.121Z,94546.63
2022-09-28T10:53:23.354Z,94550.25
2022-09-28T10:56:21.126Z,94546.28
2022-09-28T10:59:24.690Z,94534.38
2022-09-28T11:02:21.009Z,94550.91
2022-09-28T11:05:20.118Z,94549.63
2022-09-28T11:08:08.468Z,94548.84
2022-09-28T11:11:09.639Z,94563.00
2022-09-28T11:14:00.557Z,94567.13
2022-09-28T11:16:46.870Z,94562.69
2022-09-28T11:19:33.292Z,94565.00
2022-09-28T11:22:30.090Z,94545.38
2022-09-28T11:25:24.941Z,94558.06
2022-09-28T11:28:23.829Z,94563.97
2022-09-28T11:31:12.515Z,94559.72
2022-09-28T11:34:05.160Z,94570.44
2022-09-28T11:37:05.737Z,94569.97
2022-09-28T11:39:59.032Z,94567.38
2022-09-28T11:42:52.954Z,94577.81
2022-09-28T11:45:50.041Z,94568.16
2022-09-28T11:48:40.862Z,94585.06
2022-09-28T11:51:29.375Z,94585.03
2022-09-28T11:54:23.121Z,94588.34
2022-09-28T11:57:16.579Z,94600.13
2022-09-28T12:00:05.621Z,94603.16
2022-09-28T12:02:54.710Z,94588.59
2022-09-28T12:05:44.656Z,94590.97
2022-09-28T12:08:33.171Z,94588.19
2022-09-28T12:11:23.473Z,94584.66
2022-09-28T12:14:16.452Z,94543.38
2022-09-28T12:17:08.082Z,94580.13
2022-09-28T12:19:59.528Z,94597.41
2022-09-28T12:22:49.525Z,94598.91
2022-09-28T12:25:42.193Z,94603.31
2022-09-28T12:28:35.126Z,94610.66
2022-09-28T12:31:26.850Z,94603.81
2022-09-28T12:34:13.848Z,94589.19
2022-09-28T12:37:12.952Z,94590.63
2022-09-28T12:40:13.667Z,94584.41
2022-09-28T12:43:10.317Z,94583.25
2022-09-28T12:46:11.897Z,94583.38
2022-09-28T12:52:38.762Z,94588.22
2022-09-28T12:55:43.387Z,94592.56
2022-09-28T12:58:59.879Z,94580.59
2022-09-28T13:01:58.322Z,94609.13
2022-09-28T13:04:38.074Z,94595.72
2022-09-28T13:07:07.224Z,94596.91
2022-09-28T13:09:43.064Z,94593.13
2022-09-28T13:12:27.336Z,94587.97
2022-09-28T13:15:28.525Z,94597.06
2022-09-28T13:18:05.090Z,94597.38
2022-09-28T13:20:52.917Z,94597.00
2022-09-28T13:23:22.853Z,94606.97
2022-09-28T13:25:56.670Z,94594.38
2022-09-28T13:28:27.317Z,94595.84
2022-09-28T13:30:56.724Z,94569.88
2022-09-28T13:33:31.574Z,94595.50
2022-09-28T13:36:03.094Z,94617.34
2022-09-28T13:38:32.501Z,94618.59
2022-09-28T13:41:15.815Z,94617.59
2022-09-28T13:43:55.705Z,94625.75
2022-09-28T13:46:29.902Z,94623.34
2022-09-28T13:49:06.639Z,94617.16
2022-09-28T13:51:44.858Z,94630.53
2022-09-28T13:54:29.194Z,94628.78
2022-09-28T13:57:04.385Z,94616.19
2022-09-28T13:59:33.550Z,94625.81
2022-09-28T14:02:07.162Z,94575.50
2022-09-28T14:04:55.359Z,94629.69
2022-09-28T14:10:20.961Z,94636.88
2022-09-28T14:12:50.329Z,94634.88
2022-09-28T14:15:41.220Z,94642.28
2022-09-28T14:18:15.887Z,94648.81
2022-09-28T14:20:51.541Z,94653.66
2022-09-28T14:23:58.957Z,94660.78
2022-09-28T14:27:02.934Z,94655.00
2022-09-28T14:29:31.672Z,94650.97
2022-09-28T14:32:00.139Z,94646.00
2022-09-28T14:34:36.483Z,94650.31
2022-09-28T14:37:23.331Z,94616.97
2022-09-28T14:40:10.446Z,94655.09
2022-09-28T14:42:38.429Z,94644.94
2022-09-28T14:45:21.758Z,94651.75
2022-09-28T14:48:14.004Z,94650.84
2022-09-28T14:50:42.542Z,94661.31
2022-09-28T14:53:14.884Z,94646.66
2022-09-28T14:55:50.243Z,94659.59
2022-09-28T14:58:25.012Z,94660.63
2022-09-28T15:01:01.652Z,94666.53
2022-09-28T15:03:31.585Z,94656.09
2022-09-28T15:05:59.742Z,94627.41
2022-09-28T15:08:37.822Z,94658.22
2022-09-28T15:11:07.490Z,94645.84
2022-09-28T15:13:35.421Z,94644.41
2022-09-28T15:16:07.270Z,94669.59
2022-09-28T15:18:52.198Z,94664.19
2022-09-28T15:21:20.671Z,94659.38
2022-09-28T15:23:49.738Z,94596.66
2022-09-28T15:26:27.609Z,94676.03
2022-09-28T15:28:56.109Z,94672.22
2022-09-28T15:31:26.362Z,94676.69
2022-09-28T15:34:12.006Z,94687.28
2022-09-28T15:36:41.030Z,94688.41
2022-09-28T15:39:15.189Z,94684.09
2022-09-28T15:41:45.105Z,94639.47
2022-09-28T15:44:30.254Z,94685.38
2022-09-28T15:47:13.913Z,94680.56
2022-09-28T15:49:46.026Z,94682.00
2022-09-28T15:52:26.617Z,94684.25
2022-09-28T15:54:55.158Z,94687.94
2022-09-28T15:57:37.928Z,94690.72
2022-09-28T16:00:08.374Z,94692.66
2022-09-28T16:02:36.594Z,94700.16
2022-09-28T16:05:05.425Z,94695.94
2022-09-28T16:07:38.441Z,94703.66
2022-09-28T16:10:33.810Z,94703.66
2022-09-28T16:13:17.850Z,94699.31
2022-09-28T16:15:45.874Z,94701.56
2022-09-28T16:18:20.102Z,94696.09
2022-09-28T16:20:49.642Z,94693.84
2022-09-28T16:23:21.815Z,94707.09
2022-09-28T16:25:52.941Z,94708.31
2022-09-28T16:28:49.003Z,94710.44
2022-09-28T16:31:33.787Z,94675.88
2022-09-28T16:34:11.715Z,94711.84
2022-09-28T16:36:47.302Z,94706.78
2022-09-28T16:39:16.401Z,94707.16
2022-09-28T16:41:48.425Z,94711.56
2022-09-28T16:44:23.418Z,94660.16
2022-09-28T16:46:53.934Z,94704.88
2022-09-28T16:49:23.097Z,94702.13
2022-09-28T16:51:51.099Z,94691.22
2022-09-28T16:54:37.534Z,94707.81
2022-09-28T16:57:06.932Z,94704.16
2022-09-28T16:59:38.423Z,94710.97
2022-09-28T17:02:35.418Z,94714.88
2022-09-28T17:05:06.362Z,94726.09
2022-09-28T17:07:34.474Z,94724.34
2022-09-28T17:10:02.382Z,94717.34
2022-09-28T17:12:30.273Z,94716.69
2022-09-28T17:15:00.364Z,94716.94
2022-09-28T17:17:31.057Z,94721.94
2022-09-28T17:19:59.060Z,94721.19
2022-09-28T17:22:27.011Z,94728.47
2022-09-28T17:24:55.034Z,94734.41
2022-09-28T17:27:23.034Z,94750.88
2022-09-28T17:29:51.446Z,94748.94
2022-09-28T17:32:21.310Z,94692.84
2022-09-28T17:35:00.900Z,94743.63
2022-09-28T17:37:37.577Z,94742.38
2022-09-28T17:40:18.051Z,94739.53
2022-09-28T17:42:46.522Z,94737.72
2022-09-28T17:45:14.853Z,94744.06
2022-09-28T17:47:44.453Z,94747.06
2022-09-28T17:50:23.652Z,94760.41
2022-09-28T17:52:53.111Z,94762.94
2022-09-28T17:55:22.556Z,94768.00
2022-09-28T17:57:50.564Z,94771.72
2022-09-28T18:00:19.024Z,94755.56
2022-09-28T18:02:48.637Z,94768.69
2022-09-28T18:05:16.687Z,94781.28
2022-09-28T18:07:47.813Z,94785.13
2022-09-28T18:10:17.283Z,94787.00
2022-09-28T18:12:45.288Z,94783.84
2022-09-28T18:15:13.375Z,94787.78
2022-09-28T18:17:41.458Z,94786.19
2022-09-28T18:20:12.753Z,94790.19
2022-09-28T18:22:40.886Z,94758.59
2022-09-28T18:25:09.307Z,94788.56
2022-09-28T18:27:37.266Z,94789.22
2022-09-28T18:30:06.516Z,94790.03
2022-09-28T18:32:36.823Z,94797.81
2022-09-28T18:35:05.160Z,94798.38
2022-09-28T18:37:37.818Z,94799.59
2022-09-28T18:40:06.726Z,94800.69
2022-09-28T18:42:35.611Z,94790.78
2022-09-28T18:45:03.583Z,94800.19
2022-09-28T18:47:31.473Z,94801.22
2022-09-28T18:49:59.417Z,94808.78
2022-09-28T18:52:27.461Z,94816.25
2022-09-28T18:54:56.805Z,94811.16
2022-09-28T18:57:24.714Z,94809.03
2022-09-28T18:59:52.598Z,94817.34
2022-09-28T19:02:20.627Z,94819.19
2022-09-28T19:04:48.637Z,94803.56
2022-09-28T19:07:16.903Z,94813.72
2022-09-28T19:09:45.136Z,94833.34
2022-09-28T19:12:14.985Z,94807.72
2022-09-28T19:14:43.112Z,94825.59
2022-09-28T19:17:12.010Z,94834.59
2022-09-28T19:19:40.966Z,94832.41
2022-09-28T19:22:08.883Z,94835.13
2022-09-28T19:24:36.793Z,94837.25
2022-09-28T19:27:04.855Z,94841.13
2022-09-28T19:29:34.424Z,94832.56
2022-09-28T19:32:02.714Z,94834.69
2022-09-28T19:34:30.617Z,94832.72
2022-09-28T19:36:58.572Z,94830.41
2022-09-28T19:39:26.526Z,94823.00
2022-09-28T19:41:57.194Z,94830.66
2022-09-28T19:44:27.024Z,94839.03
2022-09-28T19:46:57.597Z,94840.78
2022-09-28T19:49:27.097Z,94841.31
2022-09-28T19:54:46.193Z,94848.53
2022-09-28T19:57:15.942Z,94846.47
2022-09-28T19:59:44.182Z,94846.69
2022-09-28T20:02:14.151Z,94844.69
2022-09-28T20:04:42.105Z,94858.66
2022-09-28T20:07:10.055Z,94857.16
2022-09-28T20:09:37.954Z,94854.91
2022-09-28T20:12:06.048Z,94860.81
2022-09-28T20:14:38.017Z,94850.72
2022-09-28T20:17:08.374Z,94858.25
2022-09-28T20:19:37.805Z,94843.88
2022-09-28T20:22:05.741Z,94851.16
2022-09-28T20:24:33.875Z,94850.34
2022-09-28T20:27:02.540Z,94856.78
2022-09-28T20:29:33.340Z,94856.38
2022-09-28T20:32:01.906Z,94861.88
2022-09-28T20:34:29.811Z,94867.00
2022-09-28T20:36:59.240Z,94868.91
2022-09-28T20:39:27.165Z,94871.97
2022-09-28T20:41:55.053Z,94878.28
2022-09-28T20:44:23.006Z,94867.53
2022-09-28T20:46:51.454Z,94879.34
2022-09-28T20:49:19.410Z,94882.31
2022-09-28T20:51:47.377Z,94871.16
2022-09-28T20:54:16.910Z,94872.34
2022-09-28T20:56:44.921Z,94884.28
2022-09-28T20:59:13.216Z,94850.53
2022-09-28T21:01:41.814Z,94879.59
2022-09-28T21:04:11.071Z,94884.53
2022-09-28T21:06:40.884Z,94884.28
2022-09-28T21:09:10.462Z,94885.72
2022-09-28T21:11:40.312Z,94896.25
2022-09-28T21:14:09.667Z,94864.41
2022-09-28T21:16:37.636Z,94908.91
2022-09-28T21:19:05.829Z,94914.81
2022-09-28T21:21:33.990Z,94909.81
2022-09-28T21:24:02.374Z,94914.00
2022-09-28T21:26:31.273Z,94916.91
2022-09-28T21:29:01.477Z,94917.75
2022-09-28T21:31:33.469Z,94924.13
2022-09-28T21:34:01.742Z,94905.38
2022-09-28T21:36:29.644Z,94898.16
2022-09-28T21:38:57.745Z,94902.19
2022-09-28T21:41:26.173Z,94909.56
2022-09-28T21:43:54.245Z,94909.69
2022-09-28T21:46:24.768Z,94917.44
2022-09-28T21:48:53.778Z,94915.41
2022-09-28T21:51:21.905Z,94915.38
2022-09-28T21:53:50.278Z,94911.09
2022-09-28T21:56:18.668Z,94874.53
2022-09-28T21:58:46.760Z,94910.97
2022-09-28T22:01:19.517Z,94909.31
2022-09-28T22:03:50.535Z,94915.09
2022-09-28T22:06:19.822Z,94914.84
2022-09-28T22:08:48.830Z,94914.16
2022-09-28T22:11:18.377Z,94910.16
2022-09-28T22:13:47.639Z,94912.56
2022-09-28T22:16:17.219Z,94921.56
2022-09-28T22:18:45.545Z,94926.56
2022-09-28T22:21:19.322Z,94930.59
2022-09-28T22:23:47.494Z,94928.94
2022-09-28T22:26:19.139Z,94873.66
2022-09-28T22:28:48.275Z,94916.28
2022-09-28T22:31:16.463Z,94912.50
2022-09-28T22:33:44.567Z,94903.53
2022-09-28T22:36:14.997Z,94910.09
2022-09-28T22:38:44.746Z,94906.38
2022-09-28T22:41:13.121Z,94902.09
2022-09-28T22:43:41.007Z,94879.06
2022-09-28T22:46:12.540Z,94906.84
2022-09-28T22:48:40.650Z,94899.56
2022-09-28T22:51:08.693Z,94894.19
2022-09-28T22:53:36.825Z,94843.13
2022-09-28T22:56:07.518Z,94909.25
2022-09-28T22:58:35.913Z,94921.13
2022-09-28T23:01:08.220Z,94916.94
2022-09-28T23:03:36.970Z,94913.00
2022-09-28T23:06:05.100Z,94935.16
2022-09-28T23:08:33.136Z,94926.69
2022-09-28T23:11:01.564Z,94937.84
2022-09-28T23:13:31.170Z,94903.69
2022-09-28T23:16:00.469Z,94934.72
2022-09-28T23:18:29.977Z,94905.47
2022-09-28T23:20:59.529Z,94944.69
2022-09-28T23:23:27.757Z,94945.75
2022-09-28T23:25:56.577Z,94946.81
2022-09-28T23:28:26.034Z,94948.78
2022-09-28T23:30:55.346Z,94947.31
2022-09-28T23:33:23.688Z,94949.78
2022-09-28T23:35:51.729Z,94930.41
2022-09-28T23:38:19.733Z,94958.00
2022-09-28T23:40:48.085Z,94975.97
2022-09-28T23:43:16.167Z,94955.84
2022-09-28T23:45:44.140Z,94949.69
2022-09-28T23:48:14.972Z,94945.59
2022-09-28T23:50:43.439Z,94939.19
2022-09-28T23:53:11.897Z,94946.41
2022-09-28T23:55:39.785Z,94954.19
2022-09-28T23:58:07.730Z,94951.19
